sensor_id;sensor_type;location;lat;lon;timestamp;temperature;humidity
72320;SHT30;60269;52.502;16.732;2023-04-12T00:00:07;5.40;97.79
72320;SHT30;60269;52.502;16.732;2023-04-12T00:04:02;5.26;98.21
72320;SHT30;60269;52.502;16.732;2023-04-12T00:07:35;5.30;98.21
72320;SHT30;60269;52.502;16.732;2023-04-12T00:11:09;5.27;98.25
72320;SHT30;60269;52.502;16.732;2023-04-12T00:14:41;5.25;98.47
72320;SHT30;60269;52.502;16.732;2023-04-12T00:18:12;5.22;98.61
72320;SHT30;60269;52.502;16.732;2023-04-12T00:21:46;5.20;98.59
72320;SHT30;60269;52.502;16.732;2023-04-12T00:25:18;5.26;98.58
72320;SHT30;60269;52.502;16.732;2023-04-12T00:28:50;5.13;98.52
72320;SHT30;60269;52.502;16.732;2023-04-12T00:32:22;5.02;98.73
72320;SHT30;60269;52.502;16.732;2023-04-12T00:35:54;4.91;98.86
72320;SHT30;60269;52.502;16.732;2023-04-12T00:39:26;4.81;99.00
72320;SHT30;60269;52.502;16.732;2023-04-12T00:42:59;4.75;99.12
72320;SHT30;60269;52.502;16.732;2023-04-12T00:46:31;4.67;99.11
72320;SHT30;60269;52.502;16.732;2023-04-12T00:50:04;4.60;99.17
72320;SHT30;60269;52.502;16.732;2023-04-12T00:53:39;4.57;99.11
72320;SHT30;60269;52.502;16.732;2023-04-12T00:57:13;4.50;99.25
72320;SHT30;60269;52.502;16.732;2023-04-12T01:00:45;4.48;99.31
72320;SHT30;60269;52.502;16.732;2023-04-12T01:04:21;4.44;99.29
72320;SHT30;60269;52.502;16.732;2023-04-12T01:08:10;4.36;99.42
72320;SHT30;60269;52.502;16.732;2023-04-12T01:16:03;4.41;99.56
72320;SHT30;60269;52.502;16.732;2023-04-12T01:20:05;4.43;99.46
72320;SHT30;60269;52.502;16.732;2023-04-12T01:24:00;4.41;99.33
72320;SHT30;60269;52.502;16.732;2023-04-12T01:27:41;4.32;99.27
72320;SHT30;60269;52.502;16.732;2023-04-12T01:31:16;4.20;99.00
72320;SHT30;60269;52.502;16.732;2023-04-12T01:34:49;4.11;99.22
72320;SHT30;60269;52.502;16.732;2023-04-12T01:38:25;4.10;99.43
72320;SHT30;60269;52.502;16.732;2023-04-12T01:41:57;4.03;99.47
72320;SHT30;60269;52.502;16.732;2023-04-12T01:45:29;4.06;99.61
72320;SHT30;60269;52.502;16.732;2023-04-12T01:49:01;3.99;99.62
72320;SHT30;60269;52.502;16.732;2023-04-12T01:52:41;3.98;99.60
72320;SHT30;60269;52.502;16.732;2023-04-12T01:56:16;3.92;99.61
72320;SHT30;60269;52.502;16.732;2023-04-12T01:59:49;3.88;99.65
72320;SHT30;60269;52.502;16.732;2023-04-12T02:03:23;3.83;99.66
72320;SHT30;60269;52.502;16.732;2023-04-12T02:06:55;3.83;99.72
72320;SHT30;60269;52.502;16.732;2023-04-12T02:10:32;3.83;99.67
72320;SHT30;60269;52.502;16.732;2023-04-12T02:14:04;3.85;99.72
72320;SHT30;60269;52.502;16.732;2023-04-12T02:17:36;3.86;99.63
72320;SHT30;60269;52.502;16.732;2023-04-12T02:21:08;3.89;99.48
72320;SHT30;60269;52.502;16.732;2023-04-12T02:24:39;3.89;99.31
72320;SHT30;60269;52.502;16.732;2023-04-12T02:28:12;4.02;99.19
72320;SHT30;60269;52.502;16.732;2023-04-12T02:31:44;3.98;99.19
72320;SHT30;60269;52.502;16.732;2023-04-12T02:35:16;4.09;98.98
72320;SHT30;60269;52.502;16.732;2023-04-12T02:38:48;4.03;98.70
72320;SHT30;60269;52.502;16.732;2023-04-12T02:42:21;4.06;98.73
72320;SHT30;60269;52.502;16.732;2023-04-12T02:45:54;4.03;98.77
72320;SHT30;60269;52.502;16.732;2023-04-12T02:49:25;4.03;98.70
72320;SHT30;60269;52.502;16.732;2023-04-12T02:52:58;4.07;98.74
72320;SHT30;60269;52.502;16.732;2023-04-12T02:56:30;4.06;98.73
72320;SHT30;60269;52.502;16.732;2023-04-12T03:00:02;4.19;98.50
72320;SHT30;60269;52.502;16.732;2023-04-12T03:03:39;4.16;98.37
72320;SHT30;60269;52.502;16.732;2023-04-12T03:07:12;4.27;98.10
72320;SHT30;60269;52.502;16.732;2023-04-12T03:10:44;4.30;98.06
72320;SHT30;60269;52.502;16.732;2023-04-12T03:14:16;4.30;97.99
72320;SHT30;60269;52.502;16.732;2023-04-12T03:17:48;4.40;97.83
72320;SHT30;60269;52.502;16.732;2023-04-12T03:21:21;4.48;97.71
72320;SHT30;60269;52.502;16.732;2023-04-12T03:24:53;4.54;97.49
72320;SHT30;60269;52.502;16.732;2023-04-12T03:28:25;4.60;97.46
72320;SHT30;60269;52.502;16.732;2023-04-12T03:31:58;4.56;97.40
72320;SHT30;60269;52.502;16.732;2023-04-12T03:35:30;4.62;97.54
72320;SHT30;60269;52.502;16.732;2023-04-12T03:39:02;4.51;97.60
72320;SHT30;60269;52.502;16.732;2023-04-12T03:42:34;4.64;97.50
72320;SHT30;60269;52.502;16.732;2023-04-12T03:46:07;4.54;97.90
72320;SHT30;60269;52.502;16.732;2023-04-12T03:49:39;4.46;98.26
72320;SHT30;60269;52.502;16.732;2023-04-12T03:53:12;4.40;98.31
72320;SHT30;60269;52.502;16.732;2023-04-12T03:56:43;4.50;98.08
72320;SHT30;60269;52.502;16.732;2023-04-12T04:00:17;4.39;98.34
72320;SHT30;60269;52.502;16.732;2023-04-12T04:03:49;4.41;98.39
72320;SHT30;60269;52.502;16.732;2023-04-12T04:07:21;4.41;98.55
72320;SHT30;60269;52.502;16.732;2023-04-12T04:10:55;4.43;98.68
72320;SHT30;60269;52.502;16.732;2023-04-12T04:14:27;4.56;98.54
72320;SHT30;60269;52.502;16.732;2023-04-12T04:17:59;4.57;98.43
72320;SHT30;60269;52.502;16.732;2023-04-12T04:21:32;4.67;98.18
72320;SHT30;60269;52.502;16.732;2023-04-12T04:25:04;4.71;97.92
72320;SHT30;60269;52.502;16.732;2023-04-12T04:28:37;4.67;97.95
72320;SHT30;60269;52.502;16.732;2023-04-12T04:32:11;4.72;98.05
72320;SHT30;60269;52.502;16.732;2023-04-12T04:35:43;4.78;97.83
72320;SHT30;60269;52.502;16.732;2023-04-12T04:39:15;4.84;97.72
72320;SHT30;60269;52.502;16.732;2023-04-12T04:42:48;4.88;97.24
72320;SHT30;60269;52.502;16.732;2023-04-12T04:46:25;4.85;97.44
72320;SHT30;60269;52.502;16.732;2023-04-12T04:50:01;4.87;97.44
72320;SHT30;60269;52.502;16.732;2023-04-12T04:53:34;4.91;97.33
72320;SHT30;60269;52.502;16.732;2023-04-12T04:57:09;4.98;97.27
72320;SHT30;60269;52.502;16.732;2023-04-12T05:00:46;5.05;96.94
72320;SHT30;60269;52.502;16.732;2023-04-12T05:04:19;5.11;96.88
72320;SHT30;60269;52.502;16.732;2023-04-12T05:07:51;5.15;96.53
72320;SHT30;60269;52.502;16.732;2023-04-12T05:11:25;5.12;96.54
72320;SHT30;60269;52.502;16.732;2023-04-12T05:14:58;5.26;96.45
72320;SHT30;60269;52.502;16.732;2023-04-12T05:18:43;5.23;96.56
72320;SHT30;60269;52.502;16.732;2023-04-12T05:22:16;5.29;96.23
72320;SHT30;60269;52.502;16.732;2023-04-12T05:25:51;5.43;96.09
72320;SHT30;60269;52.502;16.732;2023-04-12T05:29:23;5.44;96.13
72320;SHT30;60269;52.502;16.732;2023-04-12T05:32:55;5.64;95.72
72320;SHT30;60269;52.502;16.732;2023-04-12T05:36:27;5.74;95.45
72320;SHT30;60269;52.502;16.732;2023-04-12T05:39:59;5.84;95.07
72320;SHT30;60269;52.502;16.732;2023-04-12T05:43:31;6.01;94.57
72320;SHT30;60269;52.502;16.732;2023-04-12T05:47:08;5.85;94.79
72320;SHT30;60269;52.502;16.732;2023-04-12T05:50:40;5.93;94.59
72320;SHT30;60269;52.502;16.732;2023-04-12T05:54:12;6.04;94.50
72320;SHT30;60269;52.502;16.732;2023-04-12T05:57:44;6.01;94.45
72320;SHT30;60269;52.502;16.732;2023-04-12T06:01:17;5.97;94.34
72320;SHT30;60269;52.502;16.732;2023-04-12T06:04:51;6.08;94.59
72320;SHT30;60269;52.502;16.732;2023-04-12T06:08:23;6.28;93.78
72320;SHT30;60269;52.502;16.732;2023-04-12T06:11:56;6.35;93.22
72320;SHT30;60269;52.502;16.732;2023-04-12T06:15:28;6.70;92.59
72320;SHT30;60269;52.502;16.732;2023-04-12T06:19:02;7.07;91.24
72320;SHT30;60269;52.502;16.732;2023-04-12T06:22:37;7.11;90.86
72320;SHT30;60269;52.502;16.732;2023-04-12T06:26:09;7.25;90.12
72320;SHT30;60269;52.502;16.732;2023-04-12T06:29:42;7.35;89.85
72320;SHT30;60269;52.502;16.732;2023-04-12T06:33:14;7.69;88.92
72320;SHT30;60269;52.502;16.732;2023-04-12T06:36:46;8.18;87.85
72320;SHT30;60269;52.502;16.732;2023-04-12T06:40:18;8.72;85.02
72320;SHT30;60269;52.502;16.732;2023-04-12T06:43:50;8.77;84.38
72320;SHT30;60269;52.502;16.732;2023-04-12T06:47:23;8.80;84.47
72320;SHT30;60269;52.502;16.732;2023-04-12T06:50:56;8.75;83.65
72320;SHT30;60269;52.502;16.732;2023-04-12T06:54:28;8.65;84.40
72320;SHT30;60269;52.502;16.732;2023-04-12T06:58:00;8.96;84.30
72320;SHT30;60269;52.502;16.732;2023-04-12T07:01:32;9.18;82.81
72320;SHT30;60269;52.502;16.732;2023-04-12T07:05:04;9.00;82.95
72320;SHT30;60269;52.502;16.732;2023-04-12T07:08:37;8.97;83.22
72320;SHT30;60269;52.502;16.732;2023-04-12T07:12:09;9.13;82.74
72320;SHT30;60269;52.502;16.732;2023-04-12T07:15:41;9.54;81.55
72320;SHT30;60269;52.502;16.732;2023-04-12T07:19:13;9.85;81.09
72320;SHT30;60269;52.502;16.732;2023-04-12T07:22:45;9.86;80.20
72320;SHT30;60269;52.502;16.732;2023-04-12T07:26:17;9.90;80.66
72320;SHT30;60269;52.502;16.732;2023-04-12T07:29:52;10.50;78.32
72320;SHT30;60269;52.502;16.732;2023-04-12T07:33:25;11.10;77.20
72320;SHT30;60269;52.502;16.732;2023-04-12T07:36:57;11.89;75.40
72320;SHT30;60269;52.502;16.732;2023-04-12T07:40:31;12.98;71.26
72320;SHT30;60269;52.502;16.732;2023-04-12T07:44:03;14.30;66.17
72320;SHT30;60269;52.502;16.732;2023-04-12T07:47:35;15.14;62.71
72320;SHT30;60269;52.502;16.732;2023-04-12T07:51:08;14.45;67.06
72320;SHT30;60269;52.502;16.732;2023-04-12T07:54:39;13.93;66.33
72320;SHT30;60269;52.502;16.732;2023-04-12T07:58:13;13.97;65.23
72320;SHT30;60269;52.502;16.732;2023-04-12T08:01:45;13.91;65.85
72320;SHT30;60269;52.502;16.732;2023-04-12T08:05:17;13.22;65.85
72320;SHT30;60269;52.502;16.732;2023-04-12T08:08:49;12.90;68.18
72320;SHT30;60269;52.502;16.732;2023-04-12T08:12:21;12.81;68.56
72320;SHT30;60269;52.502;16.732;2023-04-12T08:15:53;12.81;68.66
72320;SHT30;60269;52.502;16.732;2023-04-12T08:19:25;15.13;62.37
72320;SHT30;60269;52.502;16.732;2023-04-12T08:22:58;15.24;59.62
72320;SHT30;60269;52.502;16.732;2023-04-12T08:26:29;15.91;58.54
72320;SHT30;60269;52.502;16.732;2023-04-12T08:30:03;15.77;58.39
72320;SHT30;60269;52.502;16.732;2023-04-12T08:33:35;16.30;55.27
72320;SHT30;60269;52.502;16.732;2023-04-12T08:37:07;15.64;55.24
72320;SHT30;60269;52.502;16.732;2023-04-12T08:40:41;15.13;59.34
72320;SHT30;60269;52.502;16.732;2023-04-12T08:44:14;16.53;56.00
72320;SHT30;60269;52.502;16.732;2023-04-12T08:47:46;15.33;57.50
72320;SHT30;60269;52.502;16.732;2023-04-12T08:51:20;15.55;58.68
72320;SHT30;60269;52.502;16.732;2023-04-12T08:54:55;15.94;56.98
72320;SHT30;60269;52.502;16.732;2023-04-12T08:58:33;15.48;56.82
72320;SHT30;60269;52.502;16.732;2023-04-12T09:02:06;15.61;58.86
72320;SHT30;60269;52.502;16.732;2023-04-12T09:05:38;15.09;56.85
72320;SHT30;60269;52.502;16.732;2023-04-12T09:09:10;13.55;59.82
72320;SHT30;60269;52.502;16.732;2023-04-12T09:12:45;13.19;64.71
72320;SHT30;60269;52.502;16.732;2023-04-12T09:16:42;11.85;67.54
72320;SHT30;60269;52.502;16.732;2023-04-12T09:24:04;11.09;69.11
72320;SHT30;60269;52.502;16.732;2023-04-12T09:27:51;11.50;67.57
72320;SHT30;60269;52.502;16.732;2023-04-12T09:31:25;12.33;67.44
72320;SHT30;60269;52.502;16.732;2023-04-12T09:34:58;12.56;66.89
72320;SHT30;60269;52.502;16.732;2023-04-12T09:38:32;12.01;67.63
72320;SHT30;60269;52.502;16.732;2023-04-12T09:42:09;11.68;69.18
72320;SHT30;60269;52.502;16.732;2023-04-12T09:46:12;11.51;69.67
72320;SHT30;60269;52.502;16.732;2023-04-12T09:49:44;12.17;67.36
72320;SHT30;60269;52.502;16.732;2023-04-12T09:53:16;11.88;67.42
72320;SHT30;60269;52.502;16.732;2023-04-12T09:56:49;11.32;68.29
72320;SHT30;60269;52.502;16.732;2023-04-12T10:00:23;12.22;66.87
72320;SHT30;60269;52.502;16.732;2023-04-12T10:04:01;12.42;64.82
72320;SHT30;60269;52.502;16.732;2023-04-12T10:07:44;11.75;65.33
72320;SHT30;60269;52.502;16.732;2023-04-12T10:11:17;11.63;64.72
72320;SHT30;60269;52.502;16.732;2023-04-12T10:14:50;11.59;67.03
72320;SHT30;60269;52.502;16.732;2023-04-12T10:18:25;11.97;63.90
72320;SHT30;60269;52.502;16.732;2023-04-12T10:21:58;11.91;63.74
72320;SHT30;60269;52.502;16.732;2023-04-12T10:25:31;12.12;66.35
72320;SHT30;60269;52.502;16.732;2023-04-12T10:29:33;11.64;66.21
72320;SHT30;60269;52.502;16.732;2023-04-12T10:33:12;11.44;68.22
72320;SHT30;60269;52.502;16.732;2023-04-12T10:36:58;11.34;68.05
72320;SHT30;60269;52.502;16.732;2023-04-12T10:40:32;11.30;67.41
72320;SHT30;60269;52.502;16.732;2023-04-12T10:44:23;11.02;67.59
72320;SHT30;60269;52.502;16.732;2023-04-12T10:47:56;11.37;68.55
72320;SHT30;60269;52.502;16.732;2023-04-12T10:51:30;11.03;68.63
72320;SHT30;60269;52.502;16.732;2023-04-12T10:55:26;11.34;66.35
72320;SHT30;60269;52.502;16.732;2023-04-12T10:59:00;11.16;68.25
72320;SHT30;60269;52.502;16.732;2023-04-12T11:02:32;11.41;67.51
72320;SHT30;60269;52.502;16.732;2023-04-12T11:06:07;10.95;68.83
72320;SHT30;60269;52.502;16.732;2023-04-12T11:09:58;11.05;68.89
72320;SHT30;60269;52.502;16.732;2023-04-12T11:13:37;11.51;67.90
72320;SHT30;60269;52.502;16.732;2023-04-12T11:20:43;11.33;66.30
72320;SHT30;60269;52.502;16.732;2023-04-12T11:24:16;11.43;65.74
72320;SHT30;60269;52.502;16.732;2023-04-12T11:27:49;12.08;65.20
72320;SHT30;60269;52.502;16.732;2023-04-12T11:31:22;12.08;64.07
72320;SHT30;60269;52.502;16.732;2023-04-12T11:34:55;12.56;63.45
72320;SHT30;60269;52.502;16.732;2023-04-12T11:38:28;12.56;64.46
72320;SHT30;60269;52.502;16.732;2023-04-12T11:42:00;12.66;61.27
72320;SHT30;60269;52.502;16.732;2023-04-12T11:45:36;13.84;61.78
72320;SHT30;60269;52.502;16.732;2023-04-12T11:49:08;13.31;58.07
72320;SHT30;60269;52.502;16.732;2023-04-12T11:52:39;14.11;57.56
72320;SHT30;60269;52.502;16.732;2023-04-12T11:56:12;15.54;55.88
72320;SHT30;60269;52.502;16.732;2023-04-12T11:59:45;14.96;53.26
72320;SHT30;60269;52.502;16.732;2023-04-12T12:03:18;14.55;58.34
72320;SHT30;60269;52.502;16.732;2023-04-12T12:06:51;13.70;57.46
72320;SHT30;60269;52.502;16.732;2023-04-12T12:10:24;14.00;58.41
72320;SHT30;60269;52.502;16.732;2023-04-12T12:14:18;15.02;53.87
72320;SHT30;60269;52.502;16.732;2023-04-12T12:17:50;15.99;50.82
72320;SHT30;60269;52.502;16.732;2023-04-12T12:21:22;14.88;52.47
72320;SHT30;60269;52.502;16.732;2023-04-12T12:24:58;15.16;55.13
72320;SHT30;60269;52.502;16.732;2023-04-12T12:28:38;15.64;54.41
72320;SHT30;60269;52.502;16.732;2023-04-12T12:32:12;16.68;50.27
72320;SHT30;60269;52.502;16.732;2023-04-12T12:35:45;18.41;46.68
72320;SHT30;60269;52.502;16.732;2023-04-12T12:39:17;17.36;46.67
72320;SHT30;60269;52.502;16.732;2023-04-12T12:42:51;15.84;51.99
72320;SHT30;60269;52.502;16.732;2023-04-12T12:46:28;15.46;51.30
72320;SHT30;60269;52.502;16.732;2023-04-12T12:50:22;14.80;54.76
72320;SHT30;60269;52.502;16.732;2023-04-12T12:53:58;16.12;49.47
72320;SHT30;60269;52.502;16.732;2023-04-12T12:57:33;17.73;46.72
72320;SHT30;60269;52.502;16.732;2023-04-12T13:01:06;17.40;45.85
72320;SHT30;60269;52.502;16.732;2023-04-12T13:04:39;16.22;51.45
72320;SHT30;60269;52.502;16.732;2023-04-12T13:08:11;16.49;50.59
72320;SHT30;60269;52.502;16.732;2023-04-12T13:11:43;15.69;51.46
72320;SHT30;60269;52.502;16.732;2023-04-12T13:15:15;15.03;52.57
72320;SHT30;60269;52.502;16.732;2023-04-12T13:18:55;14.80;53.25
72320;SHT30;60269;52.502;16.732;2023-04-12T13:22:27;15.04;53.04
72320;SHT30;60269;52.502;16.732;2023-04-12T13:26:00;14.16;54.85
72320;SHT30;60269;52.502;16.732;2023-04-12T13:29:32;13.31;56.80
72320;SHT30;60269;52.502;16.732;2023-04-12T13:33:04;14.01;55.16
72320;SHT30;60269;52.502;16.732;2023-04-12T13:36:36;16.33;48.69
72320;SHT30;60269;52.502;16.732;2023-04-12T13:40:08;15.79;46.60
72320;SHT30;60269;52.502;16.732;2023-04-12T13:43:40;15.95;46.79
72320;SHT30;60269;52.502;16.732;2023-04-12T13:47:12;15.86;45.49
72320;SHT30;60269;52.502;16.732;2023-04-12T13:50:45;16.15;47.04
72320;SHT30;60269;52.502;16.732;2023-04-12T13:54:20;16.02;47.21
72320;SHT30;60269;52.502;16.732;2023-04-12T13:57:54;17.16;44.37
72320;SHT30;60269;52.502;16.732;2023-04-12T14:01:26;18.93;39.46
72320;SHT30;60269;52.502;16.732;2023-04-12T14:04:58;16.73;42.76
72320;SHT30;60269;52.502;16.732;2023-04-12T14:08:31;16.10;44.38
72320;SHT30;60269;52.502;16.732;2023-04-12T14:12:03;16.39;44.76
72320;SHT30;60269;52.502;16.732;2023-04-12T14:15:35;16.13;45.76
72320;SHT30;60269;52.502;16.732;2023-04-12T14:19:08;16.20;47.70
72320;SHT30;60269;52.502;16.732;2023-04-12T14:22:39;17.01;44.88
72320;SHT30;60269;52.502;16.732;2023-04-12T14:26:14;16.33;47.18
72320;SHT30;60269;52.502;16.732;2023-04-12T14:29:46;17.01;45.06
72320;SHT30;60269;52.502;16.732;2023-04-12T14:33:19;18.21;43.17
72320;SHT30;60269;52.502;16.732;2023-04-12T14:36:51;15.62;45.36
72320;SHT30;60269;52.502;16.732;2023-04-12T14:40:23;16.08;44.02
72320;SHT30;60269;52.502;16.732;2023-04-12T14:43:54;14.78;46.46
72320;SHT30;60269;52.502;16.732;2023-04-12T14:47:27;15.24;46.86
72320;SHT30;60269;52.502;16.732;2023-04-12T14:50:59;13.86;49.07
72320;SHT30;60269;52.502;16.732;2023-04-12T14:54:31;14.89;47.97
72320;SHT30;60269;52.502;16.732;2023-04-12T14:58:03;15.92;45.50
72320;SHT30;60269;52.502;16.732;2023-04-12T15:01:35;15.33;45.28
72320;SHT30;60269;52.502;16.732;2023-04-12T15:05:09;14.54;48.10
72320;SHT30;60269;52.502;16.732;2023-04-12T15:08:41;16.22;45.16
72320;SHT30;60269;52.502;16.732;2023-04-12T15:12:14;16.85;42.95
72320;SHT30;60269;52.502;16.732;2023-04-12T15:15:45;16.33;45.04
72320;SHT30;60269;52.502;16.732;2023-04-12T15:19:18;16.94;43.96
72320;SHT30;60269;52.502;16.732;2023-04-12T15:22:54;17.31;43.23
72320;SHT30;60269;52.502;16.732;2023-04-12T15:26:26;17.47;43.11
72320;SHT30;60269;52.502;16.732;2023-04-12T15:29:59;16.52;43.60
72320;SHT30;60269;52.502;16.732;2023-04-12T15:33:31;15.54;45.40
72320;SHT30;60269;52.502;16.732;2023-04-12T15:37:05;16.43;44.57
72320;SHT30;60269;52.502;16.732;2023-04-12T15:40:37;16.81;44.58
72320;SHT30;60269;52.502;16.732;2023-04-12T15:44:10;16.27;45.69
72320;SHT30;60269;52.502;16.732;2023-04-12T15:47:45;16.81;45.06
72320;SHT30;60269;52.502;16.732;2023-04-12T15:51:17;14.96;45.07
72320;SHT30;60269;52.502;16.732;2023-04-12T15:54:50;15.06;45.73
72320;SHT30;60269;52.502;16.732;2023-04-12T15:58:23;14.17;47.17
72320;SHT30;60269;52.502;16.732;2023-04-12T16:01:55;14.55;46.49
72320;SHT30;60269;52.502;16.732;2023-04-12T16:05:29;14.46;47.00
72320;SHT30;60269;52.502;16.732;2023-04-12T16:09:02;14.54;47.63
72320;SHT30;60269;52.502;16.732;2023-04-12T16:12:35;14.75;46.79
72320;SHT30;60269;52.502;16.732;2023-04-12T16:16:07;14.64;47.78
72320;SHT30;60269;52.502;16.732;2023-04-12T16:19:43;14.37;48.09
72320;SHT30;60269;52.502;16.732;2023-04-12T16:23:15;14.64;48.63
72320;SHT30;60269;52.502;16.732;2023-04-12T16:26:47;15.04;48.54
72320;SHT30;60269;52.502;16.732;2023-04-12T16:30:19;14.09;51.38
72320;SHT30;60269;52.502;16.732;2023-04-12T16:33:53;13.28;51.55
72320;SHT30;60269;52.502;16.732;2023-04-12T16:37:27;11.98;56.09
72320;SHT30;60269;52.502;16.732;2023-04-12T16:40:59;12.06;56.17
72320;SHT30;60269;52.502;16.732;2023-04-12T16:44:31;11.91;56.21
72320;SHT30;60269;52.502;16.732;2023-04-12T16:48:03;11.53;57.66
72320;SHT30;60269;52.502;16.732;2023-04-12T16:51:36;11.77;56.67
72320;SHT30;60269;52.502;16.732;2023-04-12T16:55:09;11.13;59.11
72320;SHT30;60269;52.502;16.732;2023-04-12T16:58:45;10.79;61.67
72320;SHT30;60269;52.502;16.732;2023-04-12T17:02:19;10.58;62.37
72320;SHT30;60269;52.502;16.732;2023-04-12T17:05:51;10.47;62.31
72320;SHT30;60269;52.502;16.732;2023-04-12T17:09:24;10.50;61.33
72320;SHT30;60269;52.502;16.732;2023-04-12T17:12:56;10.44;63.20
72320;SHT30;60269;52.502;16.732;2023-04-12T17:16:29;10.30;60.86
72320;SHT30;60269;52.502;16.732;2023-04-12T17:20:01;10.24;62.06
72320;SHT30;60269;52.502;16.732;2023-04-12T17:23:33;10.20;62.54
72320;SHT30;60269;52.502;16.732;2023-04-12T17:27:06;9.97;63.59
72320;SHT30;60269;52.502;16.732;2023-04-12T17:30:38;9.83;64.39
72320;SHT30;60269;52.502;16.732;2023-04-12T17:34:10;9.63;65.38
72320;SHT30;60269;52.502;16.732;2023-04-12T17:37:42;9.52;66.01
72320;SHT30;60269;52.502;16.732;2023-04-12T17:41:15;9.55;65.69
72320;SHT30;60269;52.502;16.732;2023-04-12T17:44:48;9.38;67.06
72320;SHT30;60269;52.502;16.732;2023-04-12T17:48:20;9.38;67.39
72320;SHT30;60269;52.502;16.732;2023-04-12T17:51:52;9.30;67.71
72320;SHT30;60269;52.502;16.732;2023-04-12T17:55:24;9.20;67.99
72320;SHT30;60269;52.502;16.732;2023-04-12T17:58:57;9.20;68.11
72320;SHT30;60269;52.502;16.732;2023-04-12T18:02:29;9.10;68.91
72320;SHT30;60269;52.502;16.732;2023-04-12T18:06:02;9.06;68.49
72320;SHT30;60269;52.502;16.732;2023-04-12T18:09:34;9.04;68.15
72320;SHT30;60269;52.502;16.732;2023-04-12T18:13:07;9.07;68.27
72320;SHT30;60269;52.502;16.732;2023-04-12T18:16:39;9.11;67.79
72320;SHT30;60269;52.502;16.732;2023-04-12T18:20:11;9.00;68.27
72320;SHT30;60269;52.502;16.732;2023-04-12T18:23:44;9.03;68.60
72320;SHT30;60269;52.502;16.732;2023-04-12T18:27:17;8.91;69.43
72320;SHT30;60269;52.502;16.732;2023-04-12T18:30:49;8.84;69.72
72320;SHT30;60269;52.502;16.732;2023-04-12T18:34:21;8.69;70.69
72320;SHT30;60269;52.502;16.732;2023-04-12T18:37:53;8.58;71.70
72320;SHT30;60269;52.502;16.732;2023-04-12T18:41:25;8.58;71.15
72320;SHT30;60269;52.502;16.732;2023-04-12T18:44:57;8.55;71.36
72320;SHT30;60269;52.502;16.732;2023-04-12T18:48:29;8.45;72.01
72320;SHT30;60269;52.502;16.732;2023-04-12T18:52:01;8.27;72.49
72320;SHT30;60269;52.502;16.732;2023-04-12T18:55:33;8.24;72.92
72320;SHT30;60269;52.502;16.732;2023-04-12T18:59:05;8.20;72.56
72320;SHT30;60269;52.502;16.732;2023-04-12T19:02:37;8.10;73.44
72320;SHT30;60269;52.502;16.732;2023-04-12T19:06:10;8.00;73.86
72320;SHT30;60269;52.502;16.732;2023-04-12T19:09:45;8.07;73.44
72320;SHT30;60269;52.502;16.732;2023-04-12T19:13:18;8.21;72.92
72320;SHT30;60269;52.502;16.732;2023-04-12T19:16:49;8.20;72.68
72320;SHT30;60269;52.502;16.732;2023-04-12T19:20:22;8.24;72.26
72320;SHT30;60269;52.502;16.732;2023-04-12T19:23:54;8.32;71.74
72320;SHT30;60269;52.502;16.732;2023-04-12T19:27:26;8.34;71.37
72320;SHT30;60269;52.502;16.732;2023-04-12T19:30:59;8.35;71.57
72320;SHT30;60269;52.502;16.732;2023-04-12T19:34:34;8.39;71.34
72320;SHT30;60269;52.502;16.732;2023-04-12T19:38:06;8.44;71.48
72320;SHT30;60269;52.502;16.732;2023-04-12T19:41:39;8.55;70.85
72320;SHT30;60269;52.502;16.732;2023-04-12T19:45:11;8.65;70.53
72320;SHT30;60269;52.502;16.732;2023-04-12T19:48:43;8.65;70.34
72320;SHT30;60269;52.502;16.732;2023-04-12T19:52:17;8.73;70.32
72320;SHT30;60269;52.502;16.732;2023-04-12T19:55:54;8.70;70.32
72320;SHT30;60269;52.502;16.732;2023-04-12T19:59:28;8.77;70.06
72320;SHT30;60269;52.502;16.732;2023-04-12T20:03:04;8.76;70.25
72320;SHT30;60269;52.502;16.732;2023-04-12T20:06:36;8.87;69.62
72320;SHT30;60269;52.502;16.732;2023-04-12T20:10:08;8.91;69.49
72320;SHT30;60269;52.502;16.732;2023-04-12T20:13:41;8.96;68.94
72320;SHT30;60269;52.502;16.732;2023-04-12T20:17:13;8.97;69.17
72320;SHT30;60269;52.502;16.732;2023-04-12T20:20:45;8.94;68.47
72320;SHT30;60269;52.502;16.732;2023-04-12T20:24:18;8.94;68.10
72320;SHT30;60269;52.502;16.732;2023-04-12T20:27:50;8.96;67.83
72320;SHT30;60269;52.502;16.732;2023-04-12T20:31:23;8.90;68.70
72320;SHT30;60269;52.502;16.732;2023-04-12T20:34:56;8.93;68.39
72320;SHT30;60269;52.502;16.732;2023-04-12T20:38:29;8.91;68.92
72320;SHT30;60269;52.502;16.732;2023-04-12T20:42:01;8.83;69.34
72320;SHT30;60269;52.502;16.732;2023-04-12T20:45:33;8.76;69.55
72320;SHT30;60269;52.502;16.732;2023-04-12T20:49:05;8.77;69.42
72320;SHT30;60269;52.502;16.732;2023-04-12T20:52:38;8.77;69.88
72320;SHT30;60269;52.502;16.732;2023-04-12T20:56:10;8.79;69.28
72320;SHT30;60269;52.502;16.732;2023-04-12T20:59:42;8.81;69.33
72320;SHT30;60269;52.502;16.732;2023-04-12T21:03:14;8.84;69.56
72320;SHT30;60269;52.502;16.732;2023-04-12T21:06:48;8.93;68.86
72320;SHT30;60269;52.502;16.732;2023-04-12T21:10:21;9.01;68.58
72320;SHT30;60269;52.502;16.732;2023-04-12T21:13:53;9.03;68.11
72320;SHT30;60269;52.502;16.732;2023-04-12T21:17:25;9.08;67.80
72320;SHT30;60269;52.502;16.732;2023-04-12T21:21:01;9.10;68.03
72320;SHT30;60269;52.502;16.732;2023-04-12T21:24:32;9.06;68.10
72320;SHT30;60269;52.502;16.732;2023-04-12T21:28:09;9.04;68.13
72320;SHT30;60269;52.502;16.732;2023-04-12T21:31:42;8.93;68.42
72320;SHT30;60269;52.502;16.732;2023-04-12T21:35:14;8.79;68.24
72320;SHT30;60269;52.502;16.732;2023-04-12T21:38:47;8.81;68.35
72320;SHT30;60269;52.502;16.732;2023-04-12T21:42:20;8.76;67.86
72320;SHT30;60269;52.502;16.732;2023-04-12T21:45:52;8.73;68.35
72320;SHT30;60269;52.502;16.732;2023-04-12T21:49:25;8.59;69.54
72320;SHT30;60269;52.502;16.732;2023-04-12T21:52:57;8.55;70.08
72320;SHT30;60269;52.502;16.732;2023-04-12T21:56:29;8.49;70.17
72320;SHT30;60269;52.502;16.732;2023-04-12T22:00:02;8.45;70.68
72320;SHT30;60269;52.502;16.732;2023-04-12T22:03:36;8.42;71.14
72320;SHT30;60269;52.502;16.732;2023-04-12T22:07:09;8.44;71.55
72320;SHT30;60269;52.502;16.732;2023-04-12T22:10:43;8.31;72.51
72320;SHT30;60269;52.502;16.732;2023-04-12T22:14:15;8.21;73.12
72320;SHT30;60269;52.502;16.732;2023-04-12T22:17:47;8.12;73.82
72320;SHT30;60269;52.502;16.732;2023-04-12T22:21:20;8.15;73.84
72320;SHT30;60269;52.502;16.732;2023-04-12T22:24:53;8.10;74.68
72320;SHT30;60269;52.502;16.732;2023-04-12T22:28:25;8.02;74.79
72320;SHT30;60269;52.502;16.732;2023-04-12T22:31:57;8.15;73.78